Summit, South Dakota
Current Conditions -  °F | °C
As of 2:53 AM on Monday 24 Nov 2014 (Local Time) from KATY Reporting Station
Light Snow Light Snow  
Wind Chill: -2°   Ceiling: 1600
Heat Index: 16°   Visibility: 7mi
Dew Point: 10°   Wind: 23mph
Humidity: 77%   Direction: 330°NNW
Pressure: 29.52"   Gusts: 36mph
Location:  45.3°N, 97.04°W
Report Text: KATY 240853Z AUTO 33020G31KT 7SM -SN OVC016 M09/M12 A2952 RMK AO2 PK WND 33031/0853 SLP020 P0000 60000 T10891122 55002
Loading
Personal Weather Stations






























Interactive Weather Map New forecast layout! Learn more

10-Day Weather Forecast

Advertisements
Track Severe Weather on mobile